sensor_id;sensor_type;location;lat;lon;timestamp;P1;durP1;ratioP1;P2;durP2;ratioP2
23614;SDS011;11985;49.404;7.734;2022-07-06T00:01:31;7.70;;;2.58;;
23614;SDS011;11985;49.404;7.734;2022-07-06T00:03:56;4.03;;;2.25;;
23614;SDS011;11985;49.404;7.734;2022-07-06T00:06:22;5.95;;;2.70;;
23614;SDS011;11985;49.404;7.734;2022-07-06T00:08:48;5.05;;;2.60;;
23614;SDS011;11985;49.404;7.734;2022-07-06T00:11:14;6.25;;;2.60;;
23614;SDS011;11985;49.404;7.734;2022-07-06T00:13:39;4.22;;;2.55;;
23614;SDS011;11985;49.404;7.734;2022-07-06T00:16:05;6.15;;;2.67;;
23614;SDS011;11985;49.404;7.734;2022-07-06T00:18:30;5.38;;;2.63;;
23614;SDS011;11985;49.404;7.734;2022-07-06T00:20:56;9.77;;;2.83;;
23614;SDS011;11985;49.404;7.734;2022-07-06T00:23:21;6.45;;;3.05;;
23614;SDS011;11985;49.404;7.734;2022-07-06T00:25:47;6.07;;;3.13;;
23614;SDS011;11985;49.404;7.734;2022-07-06T00:28:13;3.58;;;2.60;;
23614;SDS011;11985;49.404;7.734;2022-07-06T00:30:39;3.35;;;2.65;;
23614;SDS011;11985;49.404;7.734;2022-07-06T00:33:04;5.93;;;3.00;;
23614;SDS011;11985;49.404;7.734;2022-07-06T00:35:29;8.48;;;3.47;;
23614;SDS011;11985;49.404;7.734;2022-07-06T00:37:55;6.60;;;3.13;;
23614;SDS011;11985;49.404;7.734;2022-07-06T00:40:20;8.55;;;3.63;;
23614;SDS011;11985;49.404;7.734;2022-07-06T00:42:46;4.22;;;2.85;;
23614;SDS011;11985;49.404;7.734;2022-07-06T00:45:12;6.63;;;3.03;;
23614;SDS011;11985;49.404;7.734;2022-07-06T00:47:40;8.95;;;3.22;;
23614;SDS011;11985;49.404;7.734;2022-07-06T00:50:06;5.25;;;2.92;;
23614;SDS011;11985;49.404;7.734;2022-07-06T00:52:42;6.43;;;2.92;;
23614;SDS011;11985;49.404;7.734;2022-07-06T00:55:19;7.03;;;2.90;;
23614;SDS011;11985;49.404;7.734;2022-07-06T00:57:47;4.88;;;3.10;;
23614;SDS011;11985;49.404;7.734;2022-07-06T01:00:14;7.55;;;2.90;;
23614;SDS011;11985;49.404;7.734;2022-07-06T01:02:43;5.47;;;3.20;;
23614;SDS011;11985;49.404;7.734;2022-07-06T01:05:13;8.55;;;2.92;;
23614;SDS011;11985;49.404;7.734;2022-07-06T01:07:39;5.68;;;2.33;;
23614;SDS011;11985;49.404;7.734;2022-07-06T01:10:06;10.73;;;3.35;;
23614;SDS011;11985;49.404;7.734;2022-07-06T01:12:34;5.38;;;2.72;;
23614;SDS011;11985;49.404;7.734;2022-07-06T01:15:05;9.02;;;3.63;;
23614;SDS011;11985;49.404;7.734;2022-07-06T01:17:33;5.85;;;3.00;;
23614;SDS011;11985;49.404;7.734;2022-07-06T01:20:09;5.97;;;3.28;;
23614;SDS011;11985;49.404;7.734;2022-07-06T01:22:36;5.95;;;3.40;;
23614;SDS011;11985;49.404;7.734;2022-07-06T01:25:02;4.18;;;2.65;;
23614;SDS011;11985;49.404;7.734;2022-07-06T01:27:28;7.00;;;3.22;;
23614;SDS011;11985;49.404;7.734;2022-07-06T01:29:54;8.15;;;3.33;;
23614;SDS011;11985;49.404;7.734;2022-07-06T01:32:19;8.40;;;2.70;;
23614;SDS011;11985;49.404;7.734;2022-07-06T01:34:45;4.82;;;2.95;;
23614;SDS011;11985;49.404;7.734;2022-07-06T01:37:10;4.88;;;2.80;;
23614;SDS011;11985;49.404;7.734;2022-07-06T01:39:35;6.45;;;2.85;;
23614;SDS011;11985;49.404;7.734;2022-07-06T01:42:01;5.72;;;3.15;;
23614;SDS011;11985;49.404;7.734;2022-07-06T01:44:26;7.65;;;2.92;;
23614;SDS011;11985;49.404;7.734;2022-07-06T01:46:51;3.08;;;2.30;;
23614;SDS011;11985;49.404;7.734;2022-07-06T01:49:17;5.88;;;2.20;;
23614;SDS011;11985;49.404;7.734;2022-07-06T01:51:42;8.15;;;3.03;;
23614;SDS011;11985;49.404;7.734;2022-07-06T01:54:07;7.18;;;2.47;;
23614;SDS011;11985;49.404;7.734;2022-07-06T01:56:33;3.50;;;2.30;;
23614;SDS011;11985;49.404;7.734;2022-07-06T01:58:58;5.43;;;2.25;;
23614;SDS011;11985;49.404;7.734;2022-07-06T02:01:23;5.32;;;2.70;;
23614;SDS011;11985;49.404;7.734;2022-07-06T02:03:49;4.43;;;2.13;;
23614;SDS011;11985;49.404;7.734;2022-07-06T02:06:14;8.18;;;2.40;;
23614;SDS011;11985;49.404;7.734;2022-07-06T02:08:40;3.40;;;2.10;;
23614;SDS011;11985;49.404;7.734;2022-07-06T02:11:07;5.18;;;2.17;;
23614;SDS011;11985;49.404;7.734;2022-07-06T02:13:34;4.43;;;2.25;;
23614;SDS011;11985;49.404;7.734;2022-07-06T02:16:00;4.70;;;2.03;;
23614;SDS011;11985;49.404;7.734;2022-07-06T02:18:26;8.25;;;2.40;;
23614;SDS011;11985;49.404;7.734;2022-07-06T02:20:52;8.50;;;2.20;;
23614;SDS011;11985;49.404;7.734;2022-07-06T02:23:17;2.70;;;2.05;;
23614;SDS011;11985;49.404;7.734;2022-07-06T02:25:43;5.55;;;2.03;;
23614;SDS011;11985;49.404;7.734;2022-07-06T02:28:08;4.05;;;2.58;;
23614;SDS011;11985;49.404;7.734;2022-07-06T02:30:33;4.47;;;2.85;;
23614;SDS011;11985;49.404;7.734;2022-07-06T02:32:59;6.13;;;3.38;;
23614;SDS011;11985;49.404;7.734;2022-07-06T02:35:24;7.22;;;4.00;;
23614;SDS011;11985;49.404;7.734;2022-07-06T02:37:50;8.60;;;3.40;;
23614;SDS011;11985;49.404;7.734;2022-07-06T02:40:15;11.68;;;3.58;;
23614;SDS011;11985;49.404;7.734;2022-07-06T02:42:40;6.32;;;3.17;;
23614;SDS011;11985;49.404;7.734;2022-07-06T02:45:06;4.88;;;3.25;;
23614;SDS011;11985;49.404;7.734;2022-07-06T02:47:32;10.85;;;3.63;;
23614;SDS011;11985;49.404;7.734;2022-07-06T02:49:58;6.55;;;3.03;;
23614;SDS011;11985;49.404;7.734;2022-07-06T02:52:23;4.43;;;3.03;;
23614;SDS011;11985;49.404;7.734;2022-07-06T02:54:48;9.38;;;3.72;;
23614;SDS011;11985;49.404;7.734;2022-07-06T02:57:14;7.68;;;3.50;;
23614;SDS011;11985;49.404;7.734;2022-07-06T02:59:40;5.25;;;3.63;;
23614;SDS011;11985;49.404;7.734;2022-07-06T03:02:06;6.47;;;3.20;;
23614;SDS011;11985;49.404;7.734;2022-07-06T03:04:31;5.97;;;3.42;;
23614;SDS011;11985;49.404;7.734;2022-07-06T03:06:57;7.20;;;3.05;;
23614;SDS011;11985;49.404;7.734;2022-07-06T03:09:22;5.93;;;2.80;;
23614;SDS011;11985;49.404;7.734;2022-07-06T03:11:48;7.70;;;2.85;;
23614;SDS011;11985;49.404;7.734;2022-07-06T03:14:13;8.80;;;3.53;;
23614;SDS011;11985;49.404;7.734;2022-07-06T03:16:39;8.63;;;3.60;;
23614;SDS011;11985;49.404;7.734;2022-07-06T03:19:04;6.93;;;3.38;;
23614;SDS011;11985;49.404;7.734;2022-07-06T03:21:29;7.05;;;3.00;;
23614;SDS011;11985;49.404;7.734;2022-07-06T03:23:55;5.13;;;2.92;;
23614;SDS011;11985;49.404;7.734;2022-07-06T03:26:20;5.63;;;3.00;;
23614;SDS011;11985;49.404;7.734;2022-07-06T03:28:46;9.70;;;3.40;;
23614;SDS011;11985;49.404;7.734;2022-07-06T03:31:11;9.73;;;3.15;;
23614;SDS011;11985;49.404;7.734;2022-07-06T03:33:37;5.22;;;3.17;;
23614;SDS011;11985;49.404;7.734;2022-07-06T03:36:03;8.73;;;3.83;;
23614;SDS011;11985;49.404;7.734;2022-07-06T03:38:30;9.85;;;3.50;;
23614;SDS011;11985;49.404;7.734;2022-07-06T03:40:55;7.18;;;3.53;;
23614;SDS011;11985;49.404;7.734;2022-07-06T03:43:21;8.02;;;3.78;;
23614;SDS011;11985;49.404;7.734;2022-07-06T03:45:46;8.98;;;3.67;;
23614;SDS011;11985;49.404;7.734;2022-07-06T03:48:12;8.75;;;3.40;;
23614;SDS011;11985;49.404;7.734;2022-07-06T03:50:37;5.90;;;3.30;;
23614;SDS011;11985;49.404;7.734;2022-07-06T03:53:02;8.60;;;3.80;;
23614;SDS011;11985;49.404;7.734;2022-07-06T03:55:27;11.05;;;3.03;;
23614;SDS011;11985;49.404;7.734;2022-07-06T03:57:53;4.00;;;3.17;;
23614;SDS011;11985;49.404;7.734;2022-07-06T04:00:18;3.97;;;2.83;;
23614;SDS011;11985;49.404;7.734;2022-07-06T04:02:43;7.25;;;3.10;;
23614;SDS011;11985;49.404;7.734;2022-07-06T04:05:09;5.80;;;3.00;;
23614;SDS011;11985;49.404;7.734;2022-07-06T04:07:34;12.27;;;3.30;;
23614;SDS011;11985;49.404;7.734;2022-07-06T04:10:00;6.53;;;3.30;;
23614;SDS011;11985;49.404;7.734;2022-07-06T04:12:25;3.50;;;2.70;;
23614;SDS011;11985;49.404;7.734;2022-07-06T04:14:51;6.40;;;2.75;;
23614;SDS011;11985;49.404;7.734;2022-07-06T04:17:16;4.75;;;2.95;;
23614;SDS011;11985;49.404;7.734;2022-07-06T04:20:00;6.10;;;2.55;;
23614;SDS011;11985;49.404;7.734;2022-07-06T04:22:26;7.30;;;3.33;;
23614;SDS011;11985;49.404;7.734;2022-07-06T04:24:51;8.77;;;3.25;;
23614;SDS011;11985;49.404;7.734;2022-07-06T04:27:17;4.88;;;3.05;;
23614;SDS011;11985;49.404;7.734;2022-07-06T04:29:42;6.65;;;3.40;;
23614;SDS011;11985;49.404;7.734;2022-07-06T04:32:07;4.82;;;2.97;;
23614;SDS011;11985;49.404;7.734;2022-07-06T04:34:33;9.35;;;3.47;;
23614;SDS011;11985;49.404;7.734;2022-07-06T04:36:58;6.95;;;2.50;;
23614;SDS011;11985;49.404;7.734;2022-07-06T04:39:23;5.15;;;2.88;;
23614;SDS011;11985;49.404;7.734;2022-07-06T04:41:49;4.55;;;2.80;;
23614;SDS011;11985;49.404;7.734;2022-07-06T04:44:14;7.05;;;2.72;;
23614;SDS011;11985;49.404;7.734;2022-07-06T04:46:39;5.95;;;2.58;;
23614;SDS011;11985;49.404;7.734;2022-07-06T04:49:05;4.20;;;2.80;;
23614;SDS011;11985;49.404;7.734;2022-07-06T04:51:30;3.92;;;2.25;;
23614;SDS011;11985;49.404;7.734;2022-07-06T04:53:55;10.60;;;2.95;;
23614;SDS011;11985;49.404;7.734;2022-07-06T04:56:21;7.35;;;2.60;;
23614;SDS011;11985;49.404;7.734;2022-07-06T04:58:46;7.72;;;2.75;;
23614;SDS011;11985;49.404;7.734;2022-07-06T05:01:11;5.90;;;2.80;;
23614;SDS011;11985;49.404;7.734;2022-07-06T05:03:37;7.38;;;2.65;;
23614;SDS011;11985;49.404;7.734;2022-07-06T05:06:05;5.63;;;2.70;;
23614;SDS011;11985;49.404;7.734;2022-07-06T05:08:32;5.75;;;2.80;;
23614;SDS011;11985;49.404;7.734;2022-07-06T05:10:58;5.70;;;2.33;;
23614;SDS011;11985;49.404;7.734;2022-07-06T05:13:23;6.57;;;2.53;;
23614;SDS011;11985;49.404;7.734;2022-07-06T05:15:49;6.63;;;2.55;;
23614;SDS011;11985;49.404;7.734;2022-07-06T05:18:14;3.75;;;2.33;;
23614;SDS011;11985;49.404;7.734;2022-07-06T05:20:40;4.03;;;2.55;;
23614;SDS011;11985;49.404;7.734;2022-07-06T05:23:05;7.00;;;2.50;;
23614;SDS011;11985;49.404;7.734;2022-07-06T05:25:31;6.00;;;2.55;;
23614;SDS011;11985;49.404;7.734;2022-07-06T05:27:57;4.57;;;2.47;;
23614;SDS011;11985;49.404;7.734;2022-07-06T05:30:23;4.20;;;2.00;;
23614;SDS011;11985;49.404;7.734;2022-07-06T05:32:49;8.00;;;2.22;;
23614;SDS011;11985;49.404;7.734;2022-07-06T05:35:14;5.18;;;2.20;;
23614;SDS011;11985;49.404;7.734;2022-07-06T05:37:40;4.45;;;2.10;;
23614;SDS011;11985;49.404;7.734;2022-07-06T05:40:06;6.05;;;2.22;;
23614;SDS011;11985;49.404;7.734;2022-07-06T05:42:32;5.68;;;2.33;;
23614;SDS011;11985;49.404;7.734;2022-07-06T05:44:57;5.20;;;2.10;;
23614;SDS011;11985;49.404;7.734;2022-07-06T05:47:22;6.15;;;1.90;;
23614;SDS011;11985;49.404;7.734;2022-07-06T05:50:06;3.88;;;1.73;;
23614;SDS011;11985;49.404;7.734;2022-07-06T05:52:41;5.70;;;2.00;;
23614;SDS011;11985;49.404;7.734;2022-07-06T05:55:09;8.25;;;2.05;;
23614;SDS011;11985;49.404;7.734;2022-07-06T05:57:35;6.30;;;2.00;;
23614;SDS011;11985;49.404;7.734;2022-07-06T06:00:00;5.97;;;2.05;;
23614;SDS011;11985;49.404;7.734;2022-07-06T06:02:26;3.75;;;1.52;;
23614;SDS011;11985;49.404;7.734;2022-07-06T06:04:52;8.85;;;1.83;;
23614;SDS011;11985;49.404;7.734;2022-07-06T06:07:18;6.07;;;1.30;;
23614;SDS011;11985;49.404;7.734;2022-07-06T06:09:43;4.88;;;1.70;;
23614;SDS011;11985;49.404;7.734;2022-07-06T06:12:09;4.20;;;1.33;;
23614;SDS011;11985;49.404;7.734;2022-07-06T06:14:36;4.55;;;1.60;;
23614;SDS011;11985;49.404;7.734;2022-07-06T06:17:01;8.40;;;1.90;;
23614;SDS011;11985;49.404;7.734;2022-07-06T06:19:26;4.60;;;1.38;;
23614;SDS011;11985;49.404;7.734;2022-07-06T06:21:52;3.03;;;1.20;;
23614;SDS011;11985;49.404;7.734;2022-07-06T06:24:17;4.35;;;1.50;;
23614;SDS011;11985;49.404;7.734;2022-07-06T06:26:43;3.85;;;1.45;;
23614;SDS011;11985;49.404;7.734;2022-07-06T06:29:08;3.35;;;1.35;;
23614;SDS011;11985;49.404;7.734;2022-07-06T06:31:33;4.22;;;1.60;;
23614;SDS011;11985;49.404;7.734;2022-07-06T06:33:59;4.40;;;1.20;;
23614;SDS011;11985;49.404;7.734;2022-07-06T06:36:24;5.70;;;1.42;;
23614;SDS011;11985;49.404;7.734;2022-07-06T06:38:50;3.30;;;1.35;;
23614;SDS011;11985;49.404;7.734;2022-07-06T06:41:15;5.07;;;1.60;;
23614;SDS011;11985;49.404;7.734;2022-07-06T06:43:40;5.20;;;1.88;;
23614;SDS011;11985;49.404;7.734;2022-07-06T06:46:06;5.70;;;1.67;;
23614;SDS011;11985;49.404;7.734;2022-07-06T06:48:31;6.60;;;1.80;;
23614;SDS011;11985;49.404;7.734;2022-07-06T06:50:56;3.88;;;1.63;;
23614;SDS011;11985;49.404;7.734;2022-07-06T06:53:22;2.83;;;1.50;;
23614;SDS011;11985;49.404;7.734;2022-07-06T06:55:48;4.55;;;1.90;;
23614;SDS011;11985;49.404;7.734;2022-07-06T06:58:13;3.67;;;1.25;;
23614;SDS011;11985;49.404;7.734;2022-07-06T07:00:39;7.78;;;1.73;;
23614;SDS011;11985;49.404;7.734;2022-07-06T07:03:04;2.90;;;1.52;;
23614;SDS011;11985;49.404;7.734;2022-07-06T07:05:29;2.47;;;1.40;;
23614;SDS011;11985;49.404;7.734;2022-07-06T07:07:55;4.32;;;1.60;;
23614;SDS011;11985;49.404;7.734;2022-07-06T07:10:23;2.88;;;1.50;;
23614;SDS011;11985;49.404;7.734;2022-07-06T07:12:49;5.88;;;1.85;;
23614;SDS011;11985;49.404;7.734;2022-07-06T07:15:15;5.07;;;2.17;;
23614;SDS011;11985;49.404;7.734;2022-07-06T07:17:40;7.60;;;2.00;;
23614;SDS011;11985;49.404;7.734;2022-07-06T07:20:06;5.45;;;1.63;;
23614;SDS011;11985;49.404;7.734;2022-07-06T07:22:32;4.05;;;2.05;;
23614;SDS011;11985;49.404;7.734;2022-07-06T07:24:57;5.30;;;1.52;;
23614;SDS011;11985;49.404;7.734;2022-07-06T07:27:24;3.95;;;1.65;;
23614;SDS011;11985;49.404;7.734;2022-07-06T07:29:50;6.10;;;1.60;;
23614;SDS011;11985;49.404;7.734;2022-07-06T07:32:15;4.05;;;2.03;;
23614;SDS011;11985;49.404;7.734;2022-07-06T07:34:41;4.63;;;2.00;;
23614;SDS011;11985;49.404;7.734;2022-07-06T07:37:06;7.15;;;1.65;;
23614;SDS011;11985;49.404;7.734;2022-07-06T07:39:31;8.85;;;2.05;;
23614;SDS011;11985;49.404;7.734;2022-07-06T07:41:57;4.43;;;1.65;;
23614;SDS011;11985;49.404;7.734;2022-07-06T07:44:22;5.13;;;1.80;;
23614;SDS011;11985;49.404;7.734;2022-07-06T07:46:47;3.75;;;1.98;;
23614;SDS011;11985;49.404;7.734;2022-07-06T07:49:13;3.00;;;2.00;;
23614;SDS011;11985;49.404;7.734;2022-07-06T07:51:39;3.65;;;2.00;;
23614;SDS011;11985;49.404;7.734;2022-07-06T07:54:04;3.30;;;1.92;;
23614;SDS011;11985;49.404;7.734;2022-07-06T07:56:31;3.83;;;1.80;;
23614;SDS011;11985;49.404;7.734;2022-07-06T07:58:56;7.70;;;2.38;;
23614;SDS011;11985;49.404;7.734;2022-07-06T08:01:21;8.20;;;2.38;;
23614;SDS011;11985;49.404;7.734;2022-07-06T08:03:47;7.30;;;2.10;;
23614;SDS011;11985;49.404;7.734;2022-07-06T08:06:12;6.25;;;2.00;;
23614;SDS011;11985;49.404;7.734;2022-07-06T08:08:37;6.03;;;2.20;;
23614;SDS011;11985;49.404;7.734;2022-07-06T08:11:03;4.85;;;1.98;;
23614;SDS011;11985;49.404;7.734;2022-07-06T08:13:28;4.30;;;2.00;;
23614;SDS011;11985;49.404;7.734;2022-07-06T08:15:53;4.40;;;2.00;;
23614;SDS011;11985;49.404;7.734;2022-07-06T08:18:19;8.55;;;2.33;;
23614;SDS011;11985;49.404;7.734;2022-07-06T08:20:44;4.15;;;1.70;;
23614;SDS011;11985;49.404;7.734;2022-07-06T08:23:09;3.20;;;1.55;;
23614;SDS011;11985;49.404;7.734;2022-07-06T08:25:35;5.07;;;2.00;;
23614;SDS011;11985;49.404;7.734;2022-07-06T08:28:00;3.17;;;1.60;;
23614;SDS011;11985;49.404;7.734;2022-07-06T08:30:26;3.10;;;1.35;;
23614;SDS011;11985;49.404;7.734;2022-07-06T08:32:51;4.47;;;1.60;;
23614;SDS011;11985;49.404;7.734;2022-07-06T08:35:16;4.38;;;1.85;;
23614;SDS011;11985;49.404;7.734;2022-07-06T08:37:42;3.63;;;1.55;;
23614;SDS011;11985;49.404;7.734;2022-07-06T08:40:08;3.08;;;1.65;;
23614;SDS011;11985;49.404;7.734;2022-07-06T08:42:34;4.35;;;1.80;;
23614;SDS011;11985;49.404;7.734;2022-07-06T08:45:02;3.80;;;1.83;;
23614;SDS011;11985;49.404;7.734;2022-07-06T08:47:30;3.92;;;1.60;;
23614;SDS011;11985;49.404;7.734;2022-07-06T08:49:56;3.55;;;1.55;;
23614;SDS011;11985;49.404;7.734;2022-07-06T08:52:25;3.53;;;2.03;;
23614;SDS011;11985;49.404;7.734;2022-07-06T08:54:50;4.03;;;2.20;;
23614;SDS011;11985;49.404;7.734;2022-07-06T08:57:15;5.90;;;1.70;;
23614;SDS011;11985;49.404;7.734;2022-07-06T08:59:42;5.82;;;1.77;;
23614;SDS011;11985;49.404;7.734;2022-07-06T09:02:11;3.20;;;1.73;;
23614;SDS011;11985;49.404;7.734;2022-07-06T09:04:38;5.78;;;1.85;;
23614;SDS011;11985;49.404;7.734;2022-07-06T09:07:07;2.35;;;1.33;;
23614;SDS011;11985;49.404;7.734;2022-07-06T09:09:32;2.80;;;1.45;;
23614;SDS011;11985;49.404;7.734;2022-07-06T09:11:58;4.22;;;1.75;;
23614;SDS011;11985;49.404;7.734;2022-07-06T09:14:24;4.10;;;1.60;;
23614;SDS011;11985;49.404;7.734;2022-07-06T09:17:01;7.00;;;1.48;;
23614;SDS011;11985;49.404;7.734;2022-07-06T09:19:31;5.28;;;1.60;;
23614;SDS011;11985;49.404;7.734;2022-07-06T09:21:57;2.92;;;1.50;;
23614;SDS011;11985;49.404;7.734;2022-07-06T09:24:23;9.43;;;1.75;;
23614;SDS011;11985;49.404;7.734;2022-07-06T09:26:49;4.43;;;1.65;;
23614;SDS011;11985;49.404;7.734;2022-07-06T09:29:14;3.45;;;2.17;;
23614;SDS011;11985;49.404;7.734;2022-07-06T09:31:40;3.08;;;1.52;;
23614;SDS011;11985;49.404;7.734;2022-07-06T09:34:08;2.67;;;1.33;;
23614;SDS011;11985;49.404;7.734;2022-07-06T09:36:36;1.60;;;1.30;;
23614;SDS011;11985;49.404;7.734;2022-07-06T09:39:17;2.40;;;1.13;;
23614;SDS011;11985;49.404;7.734;2022-07-06T09:42:01;3.67;;;1.20;;
23614;SDS011;11985;49.404;7.734;2022-07-06T09:44:29;2.50;;;1.30;;
23614;SDS011;11985;49.404;7.734;2022-07-06T09:46:58;3.28;;;1.20;;
23614;SDS011;11985;49.404;7.734;2022-07-06T09:49:28;2.17;;;1.08;;
23614;SDS011;11985;49.404;7.734;2022-07-06T09:51:55;2.40;;;1.27;;
23614;SDS011;11985;49.404;7.734;2022-07-06T09:54:22;3.17;;;1.10;;
23614;SDS011;11985;49.404;7.734;2022-07-06T09:56:48;4.18;;;1.33;;
23614;SDS011;11985;49.404;7.734;2022-07-06T09:59:18;3.05;;;1.23;;
23614;SDS011;11985;49.404;7.734;2022-07-06T10:01:50;3.30;;;1.30;;
23614;SDS011;11985;49.404;7.734;2022-07-06T10:04:17;3.17;;;1.33;;
23614;SDS011;11985;49.404;7.734;2022-07-06T10:06:44;5.40;;;1.30;;
23614;SDS011;11985;49.404;7.734;2022-07-06T10:09:10;2.03;;;1.00;;
23614;SDS011;11985;49.404;7.734;2022-07-06T10:11:38;1.85;;;0.98;;
23614;SDS011;11985;49.404;7.734;2022-07-06T10:16:35;2.13;;;1.20;;
23614;SDS011;11985;49.404;7.734;2022-07-06T10:19:05;1.60;;;1.08;;
23614;SDS011;11985;49.404;7.734;2022-07-06T10:21:33;2.15;;;1.00;;
23614;SDS011;11985;49.404;7.734;2022-07-06T10:24:00;2.45;;;1.63;;
23614;SDS011;11985;49.404;7.734;2022-07-06T10:26:27;3.22;;;1.63;;
23614;SDS011;11985;49.404;7.734;2022-07-06T10:28:52;7.50;;;2.40;;
23614;SDS011;11985;49.404;7.734;2022-07-06T10:31:18;2.60;;;1.90;;
23614;SDS011;11985;49.404;7.734;2022-07-06T10:33:45;4.05;;;1.73;;
23614;SDS011;11985;49.404;7.734;2022-07-06T10:36:11;5.85;;;2.15;;
23614;SDS011;11985;49.404;7.734;2022-07-06T10:38:38;2.13;;;1.40;;
23614;SDS011;11985;49.404;7.734;2022-07-06T10:41:05;5.57;;;2.30;;
23614;SDS011;11985;49.404;7.734;2022-07-06T10:43:38;3.25;;;1.45;;
23614;SDS011;11985;49.404;7.734;2022-07-06T10:46:08;3.70;;;2.22;;
23614;SDS011;11985;49.404;7.734;2022-07-06T10:48:36;4.90;;;1.48;;
23614;SDS011;11985;49.404;7.734;2022-07-06T10:51:10;2.65;;;1.63;;
23614;SDS011;11985;49.404;7.734;2022-07-06T10:53:37;2.75;;;1.50;;
23614;SDS011;11985;49.404;7.734;2022-07-06T10:56:08;2.10;;;1.52;;
23614;SDS011;11985;49.404;7.734;2022-07-06T10:58:35;2.25;;;1.55;;
23614;SDS011;11985;49.404;7.734;2022-07-06T11:01:07;2.13;;;1.40;;
23614;SDS011;11985;49.404;7.734;2022-07-06T11:08:53;2.40;;;1.48;;
23614;SDS011;11985;49.404;7.734;2022-07-06T11:11:23;4.13;;;2.05;;
23614;SDS011;11985;49.404;7.734;2022-07-06T11:16:33;3.65;;;1.90;;
23614;SDS011;11985;49.404;7.734;2022-07-06T11:24:04;2.13;;;1.33;;
23614;SDS011;11985;49.404;7.734;2022-07-06T11:26:32;2.13;;;1.48;;
23614;SDS011;11985;49.404;7.734;2022-07-06T11:29:01;2.15;;;1.33;;
23614;SDS011;11985;49.404;7.734;2022-07-06T11:31:29;2.92;;;1.13;;
23614;SDS011;11985;49.404;7.734;2022-07-06T11:33:55;2.20;;;1.20;;
23614;SDS011;11985;49.404;7.734;2022-07-06T11:36:21;1.50;;;1.20;;
23614;SDS011;11985;49.404;7.734;2022-07-06T11:38:48;2.50;;;1.40;;
23614;SDS011;11985;49.404;7.734;2022-07-06T11:41:16;3.08;;;1.55;;
23614;SDS011;11985;49.404;7.734;2022-07-06T11:43:42;2.10;;;1.25;;
23614;SDS011;11985;49.404;7.734;2022-07-06T11:48:45;2.33;;;1.20;;
23614;SDS011;11985;49.404;7.734;2022-07-06T11:51:12;2.22;;;1.30;;
23614;SDS011;11985;49.404;7.734;2022-07-06T11:53:42;2.17;;;1.10;;
23614;SDS011;11985;49.404;7.734;2022-07-06T11:56:11;2.45;;;1.40;;
23614;SDS011;11985;49.404;7.734;2022-07-06T11:58:37;2.22;;;1.20;;
23614;SDS011;11985;49.404;7.734;2022-07-06T12:01:05;1.77;;;1.08;;
23614;SDS011;11985;49.404;7.734;2022-07-06T12:03:35;1.45;;;1.05;;
23614;SDS011;11985;49.404;7.734;2022-07-06T12:06:02;4.57;;;1.65;;
23614;SDS011;11985;49.404;7.734;2022-07-06T12:08:28;1.75;;;1.00;;
23614;SDS011;11985;49.404;7.734;2022-07-06T12:10:53;2.50;;;1.15;;
23614;SDS011;11985;49.404;7.734;2022-07-06T12:13:20;2.97;;;0.90;;
23614;SDS011;11985;49.404;7.734;2022-07-06T12:15:46;1.73;;;1.00;;
23614;SDS011;11985;49.404;7.734;2022-07-06T12:18:11;1.88;;;1.27;;
23614;SDS011;11985;49.404;7.734;2022-07-06T12:20:36;2.25;;;1.15;;
23614;SDS011;11985;49.404;7.734;2022-07-06T12:23:05;2.30;;;0.98;;
23614;SDS011;11985;49.404;7.734;2022-07-06T12:25:31;2.95;;;1.30;;
23614;SDS011;11985;49.404;7.734;2022-07-06T12:27:58;1.88;;;1.10;;
23614;SDS011;11985;49.404;7.734;2022-07-06T12:30:23;4.78;;;1.10;;
23614;SDS011;11985;49.404;7.734;2022-07-06T12:35:40;1.85;;;1.30;;
23614;SDS011;11985;49.404;7.734;2022-07-06T12:38:06;3.15;;;1.17;;
23614;SDS011;11985;49.404;7.734;2022-07-06T12:40:32;1.58;;;1.10;;
23614;SDS011;11985;49.404;7.734;2022-07-06T12:42:57;3.67;;;1.30;;
23614;SDS011;11985;49.404;7.734;2022-07-06T12:45:29;1.88;;;1.05;;
23614;SDS011;11985;49.404;7.734;2022-07-06T12:48:00;1.83;;;1.02;;
23614;SDS011;11985;49.404;7.734;2022-07-06T12:50:33;1.70;;;0.90;;
23614;SDS011;11985;49.404;7.734;2022-07-06T12:53:00;1.73;;;1.03;;
23614;SDS011;11985;49.404;7.734;2022-07-06T12:55:27;1.88;;;1.02;;
23614;SDS011;11985;49.404;7.734;2022-07-06T12:57:54;2.90;;;1.20;;
23614;SDS011;11985;49.404;7.734;2022-07-06T13:00:22;2.78;;;1.15;;
23614;SDS011;11985;49.404;7.734;2022-07-06T13:02:52;1.25;;;0.90;;
23614;SDS011;11985;49.404;7.734;2022-07-06T13:05:24;3.60;;;1.10;;
23614;SDS011;11985;49.404;7.734;2022-07-06T13:07:54;4.68;;;1.00;;
23614;SDS011;11985;49.404;7.734;2022-07-06T13:10:21;3.63;;;1.20;;
23614;SDS011;11985;49.404;7.734;2022-07-06T13:12:48;2.63;;;1.20;;
23614;SDS011;11985;49.404;7.734;2022-07-06T13:15:14;2.92;;;1.20;;
23614;SDS011;11985;49.404;7.734;2022-07-06T13:17:40;1.33;;;0.90;;
23614;SDS011;11985;49.404;7.734;2022-07-06T13:20:06;0.77;;;0.70;;
23614;SDS011;11985;49.404;7.734;2022-07-06T13:22:38;1.45;;;0.90;;
23614;SDS011;11985;49.404;7.734;2022-07-06T13:25:04;2.60;;;1.00;;
23614;SDS011;11985;49.404;7.734;2022-07-06T13:27:30;5.97;;;1.10;;
23614;SDS011;11985;49.404;7.734;2022-07-06T13:29:55;1.95;;;0.98;;
23614;SDS011;11985;49.404;7.734;2022-07-06T13:32:21;2.58;;;1.10;;
23614;SDS011;11985;49.404;7.734;2022-07-06T13:34:47;7.90;;;1.48;;
23614;SDS011;11985;49.404;7.734;2022-07-06T13:37:12;2.00;;;1.23;;
23614;SDS011;11985;49.404;7.734;2022-07-06T13:39:37;2.95;;;0.85;;
23614;SDS011;11985;49.404;7.734;2022-07-06T13:42:03;2.05;;;0.80;;
23614;SDS011;11985;49.404;7.734;2022-07-06T13:44:29;1.20;;;0.80;;
23614;SDS011;11985;49.404;7.734;2022-07-06T13:46:54;1.20;;;0.70;;
23614;SDS011;11985;49.404;7.734;2022-07-06T13:49:20;3.25;;;0.80;;
23614;SDS011;11985;49.404;7.734;2022-07-06T13:51:45;4.10;;;1.10;;
23614;SDS011;11985;49.404;7.734;2022-07-06T13:54:11;2.10;;;0.90;;
23614;SDS011;11985;49.404;7.734;2022-07-06T13:56:37;1.13;;;1.02;;
23614;SDS011;11985;49.404;7.734;2022-07-06T13:59:04;2.22;;;0.95;;
23614;SDS011;11985;49.404;7.734;2022-07-06T14:01:29;2.70;;;0.90;;
23614;SDS011;11985;49.404;7.734;2022-07-06T14:03:55;1.27;;;0.70;;
23614;SDS011;11985;49.404;7.734;2022-07-06T14:06:20;1.80;;;0.75;;
23614;SDS011;11985;49.404;7.734;2022-07-06T14:08:46;2.20;;;0.90;;
23614;SDS011;11985;49.404;7.734;2022-07-06T14:11:11;2.95;;;1.00;;
23614;SDS011;11985;49.404;7.734;2022-07-06T14:13:37;3.80;;;0.98;;
23614;SDS011;11985;49.404;7.734;2022-07-06T14:16:03;1.55;;;0.90;;
23614;SDS011;11985;49.404;7.734;2022-07-06T14:18:29;1.65;;;0.80;;
23614;SDS011;11985;49.404;7.734;2022-07-06T14:20:55;0.93;;;0.68;;
23614;SDS011;11985;49.404;7.734;2022-07-06T14:23:21;1.63;;;0.75;;
23614;SDS011;11985;49.404;7.734;2022-07-06T14:25:47;1.15;;;0.80;;
23614;SDS011;11985;49.404;7.734;2022-07-06T14:28:13;1.55;;;0.70;;
23614;SDS011;11985;49.404;7.734;2022-07-06T14:30:40;3.50;;;0.98;;
23614;SDS011;11985;49.404;7.734;2022-07-06T14:33:06;1.50;;;0.50;;
23614;SDS011;11985;49.404;7.734;2022-07-06T14:35:36;3.22;;;1.05;;
23614;SDS011;11985;49.404;7.734;2022-07-06T14:38:09;3.40;;;0.98;;
23614;SDS011;11985;49.404;7.734;2022-07-06T14:40:35;2.22;;;0.80;;
23614;SDS011;11985;49.404;7.734;2022-07-06T14:43:01;2.47;;;0.85;;
23614;SDS011;11985;49.404;7.734;2022-07-06T14:45:27;2.40;;;0.98;;
23614;SDS011;11985;49.404;7.734;2022-07-06T14:47:52;3.55;;;1.02;;
23614;SDS011;11985;49.404;7.734;2022-07-06T14:50:18;1.80;;;0.80;;
23614;SDS011;11985;49.404;7.734;2022-07-06T14:52:44;2.50;;;0.85;;
23614;SDS011;11985;49.404;7.734;2022-07-06T14:55:10;2.30;;;0.73;;
23614;SDS011;11985;49.404;7.734;2022-07-06T14:57:35;2.85;;;0.70;;
23614;SDS011;11985;49.404;7.734;2022-07-06T15:00:01;2.90;;;0.80;;
23614;SDS011;11985;49.404;7.734;2022-07-06T15:02:26;4.15;;;0.70;;
23614;SDS011;11985;49.404;7.734;2022-07-06T15:04:52;1.45;;;0.80;;